createdAt,value
2018-10-17T00:01:37.706Z,23.10
2018-10-17T00:04:06.865Z,23.93
2018-10-17T00:06:35.694Z,23.53
2018-10-17T00:09:07.250Z,23.60
2018-10-17T00:11:36.329Z,24.20
2018-10-17T00:14:05.441Z,23.43
2018-10-17T00:16:34.262Z,23.47
2018-10-17T00:19:03.160Z,22.77
2018-10-17T00:21:31.933Z,24.93
2018-10-17T00:24:00.865Z,23.80
2018-10-17T00:26:29.714Z,23.80
2018-10-17T00:28:58.565Z,24.70
2018-10-17T00:31:28.417Z,24.37
2018-10-17T00:33:57.253Z,25.60
2018-10-17T00:36:26.146Z,25.10
2018-10-17T00:38:55.034Z,24.70
2018-10-17T00:41:23.857Z,25.30
2018-10-17T00:43:52.690Z,25.63
2018-10-17T00:46:22.164Z,23.60
2018-10-17T00:48:51.036Z,24.90
2018-10-17T00:51:19.875Z,24.80
2018-10-17T00:53:48.866Z,24.53
2018-10-17T00:56:17.699Z,26.23
2018-10-17T00:59:08.512Z,25.67
2018-10-17T01:01:37.757Z,23.60
2018-10-17T01:04:07.065Z,25.47
2018-10-17T01:06:36.381Z,25.40
2018-10-17T01:09:09.386Z,25.03
2018-10-17T01:11:38.653Z,25.03
2018-10-17T01:14:07.957Z,25.87
2018-10-17T01:16:36.938Z,23.93
2018-10-17T01:19:06.332Z,27.97
2018-10-17T01:21:35.753Z,25.37
2018-10-17T01:24:04.870Z,24.43
2018-10-17T01:26:33.966Z,24.47
2018-10-17T01:29:02.883Z,24.83
2018-10-17T01:31:31.646Z,25.47
2018-10-17T01:34:00.482Z,23.13
2018-10-17T01:36:30.134Z,24.07
2018-10-17T01:38:58.954Z,25.93
2018-10-17T01:41:27.833Z,23.60
2018-10-17T01:43:56.668Z,26.67
2018-10-17T01:46:25.493Z,27.40
2018-10-17T01:48:55.042Z,24.57
2018-10-17T01:51:24.405Z,25.00
2018-10-17T01:53:53.778Z,26.33
2018-10-17T01:56:22.632Z,25.63
2018-10-17T01:58:51.466Z,26.20
2018-10-17T02:01:20.339Z,25.07
2018-10-17T02:03:49.170Z,23.87
2018-10-17T02:06:17.998Z,24.93
2018-10-17T02:08:46.854Z,24.30
2018-10-17T02:11:15.700Z,26.07
2018-10-17T02:13:44.533Z,25.47
2018-10-17T02:16:13.357Z,25.80
2018-10-17T02:18:42.210Z,27.20
2018-10-17T02:21:11.034Z,25.90
2018-10-17T02:23:39.871Z,26.87
2018-10-17T02:26:08.681Z,25.30
2018-10-17T02:28:37.525Z,24.77
2018-10-17T02:31:06.472Z,25.80
2018-10-17T02:33:35.234Z,25.40
2018-10-17T02:36:04.298Z,26.13
2018-10-17T02:38:33.119Z,26.63
2018-10-17T02:41:02.143Z,24.50
2018-10-17T02:43:30.954Z,26.27
2018-10-17T02:45:59.807Z,26.83
2018-10-17T02:48:28.626Z,25.90
2018-10-17T02:50:57.520Z,27.20
2018-10-17T02:53:26.423Z,26.10
2018-10-17T02:55:55.241Z,26.83
2018-10-17T02:58:24.086Z,28.03
2018-10-17T03:00:52.926Z,26.43
2018-10-17T03:03:21.844Z,25.63
2018-10-17T03:05:50.707Z,25.47
2018-10-17T03:08:19.570Z,25.03
2018-10-17T03:10:48.453Z,26.97
2018-10-17T03:13:17.340Z,26.13
2018-10-17T03:15:46.210Z,28.17
2018-10-17T03:18:15.028Z,26.20
2018-10-17T03:23:42.906Z,25.90
2018-10-17T03:26:11.742Z,25.10
2018-10-17T03:28:40.662Z,25.63
2018-10-17T03:31:09.505Z,27.67
2018-10-17T03:33:38.362Z,27.00
2018-10-17T03:36:07.198Z,26.50
2018-10-17T03:38:36.121Z,27.70
2018-10-17T03:41:05.160Z,27.83
2018-10-17T03:43:33.939Z,28.00
2018-10-17T03:46:02.806Z,27.20
2018-10-17T03:48:31.642Z,26.73
2018-10-17T03:51:00.514Z,26.60
2018-10-17T03:53:29.422Z,25.40
2018-10-17T03:55:58.238Z,26.33
2018-10-17T03:58:27.079Z,25.63
2018-10-17T04:00:55.988Z,27.10
2018-10-17T04:03:24.775Z,26.27
2018-10-17T04:05:54.109Z,26.07
2018-10-17T04:08:22.966Z,24.53
2018-10-17T04:10:51.820Z,26.73
2018-10-17T04:13:20.803Z,25.30
2018-10-17T04:15:49.618Z,26.80
2018-10-17T04:18:18.449Z,26.60
2018-10-17T04:20:47.332Z,25.83
2018-10-17T04:23:16.205Z,27.40
2018-10-17T04:25:45.040Z,27.50
2018-10-17T04:28:13.870Z,28.17
2018-10-17T04:30:42.692Z,26.00
2018-10-17T04:34:15.274Z,27.40
2018-10-17T04:36:44.127Z,25.97
2018-10-17T04:39:13.059Z,30.50
2018-10-17T04:41:42.180Z,34.70
2018-10-17T04:44:11.884Z,48.40
2018-10-17T04:46:40.735Z,30.00
2018-10-17T04:49:10.088Z,28.27
2018-10-17T04:51:38.923Z,27.83
2018-10-17T04:54:07.928Z,30.00
2018-10-17T04:56:36.805Z,27.10
2018-10-17T04:59:05.961Z,26.33
2018-10-17T05:01:34.767Z,27.60
2018-10-17T05:04:03.651Z,30.33
2018-10-17T05:06:32.522Z,28.83
2018-10-17T05:09:01.385Z,28.20
2018-10-17T05:11:30.205Z,37.57
2018-10-17T05:13:59.062Z,71.37
2018-10-17T05:16:27.898Z,48.70
2018-10-17T05:18:56.745Z,55.63
2018-10-17T05:21:25.606Z,40.77
2018-10-17T05:23:54.424Z,39.97
2018-10-17T05:26:23.307Z,34.17
2018-10-17T05:28:52.180Z,33.47
2018-10-17T05:31:21.022Z,37.27
2018-10-17T05:34:53.590Z,46.67
2018-10-17T05:37:22.420Z,43.00
2018-10-17T05:39:51.226Z,49.83
2018-10-17T05:42:20.118Z,54.73
2018-10-17T05:44:49.019Z,46.97
2018-10-17T05:47:17.894Z,46.97
2018-10-17T05:49:46.751Z,45.63
2018-10-17T05:52:15.585Z,38.90
2018-10-17T05:54:44.394Z,34.17
2018-10-17T05:57:13.300Z,32.60
2018-10-17T05:59:42.147Z,34.17
2018-10-17T06:02:14.747Z,32.03
2018-10-17T06:04:43.522Z,32.50
2018-10-17T06:07:12.477Z,32.30
2018-10-17T06:09:41.199Z,32.40
2018-10-17T06:12:10.042Z,36.30
2018-10-17T06:14:39.446Z,32.67
2018-10-17T06:17:08.393Z,32.17
2018-10-17T06:19:37.346Z,34.80
2018-10-17T06:22:06.236Z,31.17
2018-10-17T06:24:35.102Z,31.43
2018-10-17T06:27:03.929Z,29.60
2018-10-17T06:29:32.791Z,28.27
2018-10-17T06:32:01.772Z,35.30
2018-10-17T06:34:30.645Z,37.07
2018-10-17T06:36:59.507Z,36.63
2018-10-17T06:39:28.418Z,33.10
2018-10-17T06:41:57.386Z,32.07
2018-10-17T06:44:26.240Z,32.40
2018-10-17T06:46:55.282Z,27.20
2018-10-17T06:49:24.159Z,27.83
2018-10-17T06:51:53.006Z,26.43
2018-10-17T06:54:22.012Z,23.57
2018-10-17T06:56:50.807Z,24.57
2018-10-17T06:59:19.734Z,26.50
2018-10-17T07:01:48.726Z,26.47
2018-10-17T07:04:17.519Z,24.93
2018-10-17T07:06:46.412Z,26.13
2018-10-17T07:09:15.875Z,29.20
2018-10-17T07:11:44.800Z,27.83
2018-10-17T07:14:13.678Z,25.60
2018-10-17T07:16:42.562Z,28.30
2018-10-17T07:19:11.604Z,25.97
2018-10-17T07:21:40.343Z,26.40
2018-10-17T07:24:09.291Z,26.10
2018-10-17T07:26:38.222Z,23.37
2018-10-17T07:29:07.248Z,25.67
2018-10-17T07:31:36.107Z,23.50
2018-10-17T07:34:05.004Z,23.17
2018-10-17T07:36:33.910Z,24.13
2018-10-17T07:39:02.854Z,24.40
2018-10-17T07:41:31.790Z,25.07
2018-10-17T07:44:00.662Z,25.07
2018-10-17T07:46:29.569Z,24.70
2018-10-17T07:48:58.471Z,27.20
2018-10-17T07:51:27.356Z,25.80
2018-10-17T07:53:57.196Z,27.60
2018-10-17T07:56:26.458Z,26.70
2018-10-17T07:58:55.510Z,24.97
2018-10-17T08:01:25.789Z,24.63
2018-10-17T08:03:55.790Z,25.37
2018-10-17T08:06:24.711Z,27.90
2018-10-17T08:08:53.844Z,26.47
2018-10-17T08:11:22.666Z,26.27
2018-10-17T08:13:51.765Z,24.70
2018-10-17T08:16:20.669Z,27.47
2018-10-17T08:18:49.530Z,27.80
2018-10-17T08:21:18.411Z,28.33
2018-10-17T08:23:47.330Z,29.60
2018-10-17T08:26:16.186Z,26.33
2018-10-17T08:28:45.103Z,26.57
2018-10-17T08:31:13.983Z,28.77
2018-10-17T08:33:42.895Z,28.60
2018-10-17T08:36:12.951Z,28.50
2018-10-17T08:38:41.679Z,27.70
2018-10-17T08:41:10.629Z,29.37
2018-10-17T08:43:39.470Z,28.70
2018-10-17T08:46:08.353Z,29.87
2018-10-17T08:48:37.220Z,28.80
2018-10-17T08:51:06.100Z,31.50
2018-10-17T08:53:34.999Z,33.40
2018-10-17T08:56:03.953Z,32.17
2018-10-17T08:58:32.786Z,32.50
2018-10-17T09:01:01.647Z,32.27
2018-10-17T09:03:30.583Z,30.20
2018-10-17T09:05:59.487Z,33.80
2018-10-17T09:08:28.394Z,29.53
2018-10-17T09:10:57.240Z,30.17
2018-10-17T09:13:26.256Z,31.00
2018-10-17T09:15:55.165Z,29.00
2018-10-17T09:18:24.033Z,31.37
2018-10-17T09:20:53.785Z,31.57
2018-10-17T09:23:22.064Z,28.67
2018-10-17T09:25:50.953Z,31.80
2018-10-17T09:28:19.783Z,31.10
2018-10-17T09:30:48.570Z,29.30
2018-10-17T09:33:17.350Z,30.40
2018-10-17T09:35:46.186Z,31.03
2018-10-17T09:38:14.852Z,30.80
2018-10-17T09:40:43.547Z,32.13
2018-10-17T09:43:12.311Z,30.50
2018-10-17T09:45:40.946Z,30.33
2018-10-17T09:48:09.920Z,28.03
2018-10-17T09:50:38.586Z,29.77
2018-10-17T09:53:07.323Z,30.30
2018-10-17T09:55:35.997Z,26.47
2018-10-17T09:58:04.802Z,27.70
2018-10-17T10:00:39.078Z,27.13
2018-10-17T10:03:07.765Z,26.27
2018-10-17T10:05:36.442Z,26.60
2018-10-17T10:08:05.386Z,24.00
2018-10-17T10:10:34.124Z,26.23
2018-10-17T10:13:02.837Z,25.37
2018-10-17T10:15:31.641Z,23.00
2018-10-17T10:18:00.481Z,22.70
2018-10-17T10:20:29.401Z,24.80
2018-10-17T10:22:58.248Z,26.60
2018-10-17T10:25:27.663Z,24.30
2018-10-17T10:27:56.374Z,25.37
2018-10-17T10:30:25.217Z,23.93
2018-10-17T10:32:53.963Z,25.03
2018-10-17T10:35:22.718Z,24.00
2018-10-17T10:37:51.459Z,23.90
2018-10-17T10:40:20.120Z,23.50
2018-10-17T10:42:49.097Z,23.07
2018-10-17T10:45:18.009Z,23.87
2018-10-17T10:47:46.562Z,24.03
2018-10-17T10:50:15.425Z,25.90
2018-10-17T10:52:44.102Z,23.30
2018-10-17T10:55:12.815Z,23.90
2018-10-17T10:57:41.502Z,21.57
2018-10-17T11:00:10.282Z,20.83
2018-10-17T11:02:38.973Z,20.40
2018-10-17T11:05:07.734Z,23.53
2018-10-17T11:07:36.352Z,22.37
2018-10-17T11:10:05.323Z,21.03
2018-10-17T11:12:34.239Z,18.80
2018-10-17T11:15:03.293Z,20.30
2018-10-17T11:17:32.051Z,19.50
2018-10-17T11:20:00.892Z,22.00
2018-10-17T11:22:29.838Z,22.30
2018-10-17T11:24:58.778Z,20.07
2018-10-17T11:27:28.088Z,20.67
2018-10-17T11:29:56.939Z,18.63
2018-10-17T11:32:25.967Z,18.03
2018-10-17T11:34:54.995Z,17.27
2018-10-17T11:37:23.884Z,16.80
2018-10-17T11:39:52.641Z,17.77
2018-10-17T11:42:21.559Z,18.00
2018-10-17T11:44:50.440Z,16.10
2018-10-17T11:47:19.306Z,17.43
2018-10-17T11:49:48.287Z,17.13
2018-10-17T11:52:17.191Z,18.30
2018-10-17T11:54:46.402Z,17.70
2018-10-17T11:57:15.437Z,15.87
2018-10-17T11:59:44.289Z,16.33
2018-10-17T12:02:13.091Z,15.67
2018-10-17T12:04:42.157Z,17.03
2018-10-17T12:07:10.835Z,17.83
2018-10-17T12:09:39.754Z,15.87
2018-10-17T12:12:08.691Z,14.40
2018-10-17T12:14:38.001Z,14.17
2018-10-17T12:17:06.710Z,12.90
2018-10-17T12:19:35.658Z,15.53
2018-10-17T12:22:04.568Z,15.60
2018-10-17T12:24:35.017Z,13.53
2018-10-17T12:27:03.882Z,12.07
2018-10-17T12:29:32.576Z,13.27
2018-10-17T12:32:01.317Z,15.53
2018-10-17T12:34:30.166Z,14.10
2018-10-17T12:36:58.927Z,16.50
2018-10-17T12:39:28.113Z,14.30
2018-10-17T12:41:56.847Z,14.60
2018-10-17T12:44:25.996Z,13.10
2018-10-17T12:46:54.833Z,14.60
2018-10-17T12:49:23.719Z,14.10
2018-10-17T12:51:52.640Z,13.50
2018-10-17T12:54:21.570Z,13.30
2018-10-17T12:56:50.398Z,13.07
2018-10-17T12:59:19.343Z,15.40
2018-10-17T13:01:48.210Z,14.40
2018-10-17T13:04:17.062Z,13.80
2018-10-17T13:06:45.906Z,15.07
2018-10-17T13:09:14.842Z,15.60
2018-10-17T13:11:43.744Z,15.53
2018-10-17T13:14:12.590Z,14.00
2018-10-17T13:16:41.421Z,12.93
2018-10-17T13:19:10.362Z,14.53
2018-10-17T13:21:39.203Z,12.47
2018-10-17T13:24:08.082Z,13.50
2018-10-17T13:26:37.040Z,12.57
2018-10-17T13:29:06.585Z,12.53
2018-10-17T13:31:35.743Z,12.10
2018-10-17T13:34:05.960Z,12.00
2018-10-17T13:36:35.056Z,12.13
2018-10-17T13:39:06.031Z,11.87
2018-10-17T13:41:34.969Z,12.83
2018-10-17T13:44:03.993Z,11.70
2018-10-17T13:46:32.918Z,11.23
2018-10-17T13:49:01.947Z,11.60
2018-10-17T13:51:30.803Z,12.00
2018-10-17T13:53:59.729Z,10.83
2018-10-17T14:03:23.350Z,12.70
2018-10-17T14:05:52.191Z,14.30
2018-10-17T14:08:21.065Z,12.57
2018-10-17T14:10:50.039Z,13.40
2018-10-17T14:13:18.975Z,12.13
2018-10-17T14:15:47.854Z,13.33
2018-10-17T14:18:16.808Z,13.30
2018-10-17T14:20:45.830Z,13.13
2018-10-17T14:23:14.798Z,12.80
2018-10-17T14:25:43.708Z,13.70
2018-10-17T14:28:12.602Z,15.67
2018-10-17T14:30:41.651Z,13.13
2018-10-17T14:33:10.595Z,14.07
2018-10-17T14:35:39.472Z,16.40
2018-10-17T14:38:08.376Z,14.57
2018-10-17T14:40:37.295Z,14.33
2018-10-17T14:43:06.142Z,14.57
2018-10-17T14:45:35.049Z,13.93
2018-10-17T14:48:03.946Z,13.90
2018-10-17T14:50:32.815Z,14.60
2018-10-17T14:53:01.742Z,16.63
2018-10-17T14:55:30.665Z,16.90
2018-10-17T14:57:59.580Z,16.27
2018-10-17T15:00:28.459Z,17.67
2018-10-17T15:02:57.362Z,17.63
2018-10-17T15:05:26.262Z,16.33
2018-10-17T15:07:55.152Z,18.90
2018-10-17T15:10:24.116Z,17.80
2018-10-17T15:12:53.040Z,19.40
2018-10-17T15:15:21.912Z,19.47
2018-10-17T15:17:50.814Z,18.80
2018-10-17T15:20:19.679Z,18.60
2018-10-17T15:22:48.597Z,20.17
2018-10-17T15:25:17.470Z,20.40
2018-10-17T15:27:46.330Z,19.83
2018-10-17T15:30:15.441Z,19.30
2018-10-17T15:32:44.214Z,18.90
2018-10-17T15:35:13.131Z,19.17
2018-10-17T15:37:42.014Z,21.23
2018-10-17T15:40:11.690Z,19.90
2018-10-17T15:42:40.684Z,23.53
2018-10-17T15:45:09.665Z,22.33
2018-10-17T15:47:38.494Z,22.87
2018-10-17T15:50:07.625Z,24.57
2018-10-17T15:52:36.495Z,23.73
2018-10-17T15:55:05.919Z,24.33
2018-10-17T15:57:34.848Z,24.80
2018-10-17T16:00:06.889Z,28.77
2018-10-17T16:02:35.570Z,25.80
2018-10-17T16:05:05.748Z,28.97
2018-10-17T16:07:34.643Z,28.40
2018-10-17T16:10:03.487Z,28.20
2018-10-17T16:12:32.417Z,30.20
2018-10-17T16:15:01.319Z,30.37
2018-10-17T16:17:30.634Z,29.97
2018-10-17T16:19:59.553Z,27.70
2018-10-17T16:22:28.352Z,30.70
2018-10-17T16:24:57.214Z,30.70
2018-10-17T16:27:26.056Z,31.90
2018-10-17T16:29:55.167Z,36.97
2018-10-17T16:32:23.991Z,46.77
2018-10-17T16:34:52.954Z,45.00
2018-10-17T16:37:21.820Z,37.93
2018-10-17T16:39:50.633Z,37.00
2018-10-17T16:42:19.540Z,45.27
2018-10-17T16:44:48.399Z,37.47
2018-10-17T16:47:17.374Z,35.83
2018-10-17T16:49:46.312Z,36.60
2018-10-17T16:52:15.151Z,36.67
2018-10-17T16:54:44.069Z,50.57
2018-10-17T16:57:12.924Z,71.33
2018-10-17T16:59:41.879Z,43.90
2018-10-17T17:02:10.719Z,44.57
2018-10-17T17:04:39.597Z,50.83
2018-10-17T17:07:08.444Z,51.97
2018-10-17T17:09:37.301Z,50.77
2018-10-17T17:12:06.549Z,50.57
2018-10-17T17:14:35.452Z,43.40
2018-10-17T17:17:04.497Z,38.87
2018-10-17T17:19:33.426Z,39.43
2018-10-17T17:22:02.450Z,37.90
2018-10-17T17:24:31.348Z,35.87
2018-10-17T17:27:00.267Z,35.37
2018-10-17T17:29:29.158Z,36.70
2018-10-17T17:31:57.972Z,37.37
2018-10-17T17:34:26.906Z,35.33
2018-10-17T17:36:55.756Z,33.47
2018-10-17T17:39:24.634Z,32.83
2018-10-17T17:41:53.518Z,33.20
2018-10-17T17:44:22.383Z,33.13
2018-10-17T17:46:51.179Z,45.77
2018-10-17T17:49:20.018Z,59.60
2018-10-17T17:51:48.895Z,36.83
2018-10-17T17:54:18.262Z,34.43
2018-10-17T17:56:47.129Z,35.37
2018-10-17T17:59:15.974Z,34.70
2018-10-17T18:01:44.804Z,35.07
2018-10-17T18:04:13.738Z,34.73
2018-10-17T18:06:42.768Z,33.90
2018-10-17T18:09:13.451Z,32.30
2018-10-17T18:11:42.287Z,33.17
2018-10-17T18:14:11.227Z,32.60
2018-10-17T18:16:40.042Z,31.80
2018-10-17T18:19:08.874Z,32.17
2018-10-17T18:21:37.715Z,33.07
2018-10-17T18:24:06.604Z,36.47
2018-10-17T18:26:36.371Z,34.07
2018-10-17T18:29:05.310Z,34.30
2018-10-17T18:31:34.198Z,35.30
2018-10-17T18:34:03.103Z,39.37
2018-10-17T18:36:32.100Z,36.50
2018-10-17T18:39:01.035Z,34.67
2018-10-17T18:41:29.959Z,35.33
2018-10-17T18:43:58.778Z,35.30
2018-10-17T18:46:27.630Z,38.60
2018-10-17T18:48:56.532Z,34.77
2018-10-17T18:51:25.334Z,36.37
2018-10-17T18:53:54.200Z,38.90
2018-10-17T18:56:23.029Z,38.13
2018-10-17T18:58:51.899Z,38.00
2018-10-17T19:01:20.766Z,35.83
2018-10-17T19:03:49.575Z,36.23
2018-10-17T19:06:18.466Z,37.43
2018-10-17T19:08:47.384Z,37.83
2018-10-17T19:11:16.319Z,37.80
2018-10-17T19:13:45.184Z,34.77
2018-10-17T19:16:14.311Z,37.13
2018-10-17T19:18:43.065Z,37.03
2018-10-17T19:21:11.937Z,36.50
2018-10-17T19:23:40.799Z,35.47
2018-10-17T19:26:09.638Z,35.73
2018-10-17T19:28:38.491Z,35.53
2018-10-17T19:31:07.387Z,38.03
2018-10-17T19:33:36.224Z,36.83
2018-10-17T19:36:05.360Z,37.57
2018-10-17T19:38:34.182Z,37.27
2018-10-17T19:41:03.110Z,39.07
2018-10-17T19:43:33.126Z,38.30
2018-10-17T19:46:02.019Z,40.87
2018-10-17T19:48:30.831Z,38.77
2018-10-17T19:50:59.709Z,42.47
2018-10-17T19:53:28.510Z,41.10
2018-10-17T19:55:57.434Z,38.73
2018-10-17T19:58:26.191Z,39.37
2018-10-17T20:00:55.042Z,39.07
2018-10-17T20:03:23.930Z,38.00
2018-10-17T20:05:52.782Z,42.13
2018-10-17T20:08:21.612Z,39.10
2018-10-17T20:10:50.433Z,40.30
2018-10-17T20:13:19.292Z,42.90
2018-10-17T20:15:48.111Z,39.90
2018-10-17T20:18:16.954Z,41.93
2018-10-17T20:20:45.786Z,41.87
2018-10-17T20:23:14.614Z,38.80
2018-10-17T20:25:43.442Z,39.30
2018-10-17T20:28:12.268Z,42.83
2018-10-17T20:30:41.117Z,41.87
2018-10-17T20:33:09.984Z,41.47
2018-10-17T20:35:38.781Z,40.80
2018-10-17T20:38:07.622Z,43.23
2018-10-17T20:40:36.479Z,42.10
2018-10-17T20:43:05.324Z,42.20
2018-10-17T20:45:34.146Z,38.50
2018-10-17T20:48:02.986Z,39.60
2018-10-17T20:50:31.859Z,39.97
2018-10-17T20:53:00.668Z,43.20
2018-10-17T20:55:29.534Z,40.27
2018-10-17T20:57:58.363Z,44.90
2018-10-17T21:00:27.491Z,41.70
2018-10-17T21:02:56.362Z,44.83
2018-10-17T21:05:25.555Z,43.30
2018-10-17T21:07:54.504Z,43.13
2018-10-17T21:10:23.523Z,70.00
2018-10-17T21:12:52.594Z,92.50
2018-10-17T21:15:21.418Z,91.37
2018-10-17T21:17:50.322Z,95.83
2018-10-17T21:20:19.190Z,75.40
2018-10-17T21:22:48.014Z,68.10
2018-10-17T21:25:16.841Z,60.30
2018-10-17T21:27:45.687Z,50.23
2018-10-17T21:30:14.518Z,52.67
2018-10-17T21:32:43.366Z,61.70
2018-10-17T21:35:12.218Z,59.33
2018-10-17T21:37:41.093Z,54.33
2018-10-17T21:40:09.950Z,53.80
2018-10-17T21:42:38.818Z,54.73
2018-10-17T21:45:08.323Z,49.13
2018-10-17T21:47:37.162Z,48.20
2018-10-17T21:50:06.383Z,49.90
2018-10-17T21:52:35.102Z,63.30
2018-10-17T21:55:03.950Z,55.23
2018-10-17T21:57:32.807Z,51.60
2018-10-17T22:00:01.663Z,50.80
2018-10-17T22:02:30.484Z,51.33
2018-10-17T22:04:59.300Z,50.87
2018-10-17T22:07:28.132Z,47.30
2018-10-17T22:09:57.083Z,47.73
2018-10-17T22:12:25.882Z,46.60
2018-10-17T22:14:54.746Z,44.60
2018-10-17T22:17:29.413Z,46.43
2018-10-17T22:19:58.520Z,48.27
2018-10-17T22:22:27.788Z,46.30
2018-10-17T22:24:57.086Z,46.33
2018-10-17T22:27:26.538Z,46.03
2018-10-17T22:29:55.389Z,43.03
2018-10-17T22:32:24.219Z,44.47
2018-10-17T22:34:53.058Z,44.50
2018-10-17T22:37:21.951Z,45.10
2018-10-17T22:39:50.839Z,47.07
2018-10-17T22:42:19.675Z,45.60
2018-10-17T22:44:48.567Z,48.53
2018-10-17T22:47:17.389Z,44.33
2018-10-17T22:49:46.198Z,47.97
2018-10-17T22:52:15.032Z,46.17
2018-10-17T22:54:43.974Z,45.93
2018-10-17T22:57:12.884Z,49.20
2018-10-17T22:59:41.738Z,45.67
2018-10-17T23:02:10.617Z,43.50
2018-10-17T23:04:39.402Z,46.07
2018-10-17T23:07:08.264Z,48.03
2018-10-17T23:09:37.121Z,49.50
2018-10-17T23:12:06.466Z,48.30
2018-10-17T23:14:35.298Z,51.90
2018-10-17T23:17:04.154Z,51.10
2018-10-17T23:19:33.146Z,51.03
2018-10-17T23:22:02.003Z,50.00
2018-10-17T23:24:30.851Z,52.00
2018-10-17T23:26:59.685Z,51.20
2018-10-17T23:29:28.526Z,50.30
2018-10-17T23:31:57.431Z,51.10
2018-10-17T23:34:26.311Z,48.20
2018-10-17T23:36:55.154Z,51.57
2018-10-17T23:39:24.005Z,49.23
2018-10-17T23:41:52.901Z,50.60
2018-10-17T23:44:21.708Z,50.00
2018-10-17T23:46:50.534Z,50.40
2018-10-17T23:49:19.389Z,51.67
2018-10-17T23:51:48.230Z,51.03
2018-10-17T23:54:17.185Z,52.50
2018-10-17T23:56:46.014Z,50.97
2018-10-17T23:59:14.870Z,54.43
